Time;durP1;ratioP1;P1;durP2;ratioP2;P2;SDS_P1;SDS_P2;PMS_P1;PMS_P2;Temp;Humidity;BMP_temperature;BMP_pressure;BME280_temperature;BME280_humidity;BME280_pressure;Samples;Min_cycle;Max_cycle;Signal;HPM_P1;HPM_P2
2022/09/29 00:01:25;;;;;;;1.50;0.40;;;18.70;1.00;;;;;;5032999;28;20037;-56
2022/09/29 00:03:52;;;;;;;2.40;0.63;;;18.70;1.00;;;;;;5032833;28;20084;-51
2022/09/29 00:06:19;;;;;;;2.88;0.70;;;18.70;1.00;;;;;;5032660;28;20037;-56
2022/09/29 00:08:46;;;;;;;0.77;0.30;;;18.70;1.00;;;;;;5033173;28;20053;-57
2022/09/29 00:11:18;;;;;;;1.02;0.32;;;18.70;1.00;;;;;;5033103;28;20051;-56
2022/09/29 00:13:46;;;;;;;1.13;0.43;;;18.70;1.00;;;;;;5032885;28;20049;-57
2022/09/29 00:16:13;;;;;;;0.75;0.38;;;18.70;1.00;;;;;;5033067;28;20041;-56
2022/09/29 00:18:40;;;;;;;1.65;0.50;;;18.70;1.00;;;;;;5033018;28;20037;-55
2022/09/29 00:21:15;;;;;;;0.68;0.38;;;18.70;1.00;;;;;;5033360;28;20064;-57
2022/09/29 00:23:42;;;;;;;2.25;0.60;;;18.70;1.00;;;;;;5035689;28;20116;-56
2022/09/29 00:26:12;;;;;;;2.25;0.73;;;18.60;1.00;;;;;;5036995;28;20383;-55
2022/09/29 00:28:44;;;;;;;0.95;0.40;;;18.60;1.00;;;;;;5036841;28;20399;-55
2022/09/29 00:31:11;;;;;;;1.75;0.65;;;18.70;1.00;;;;;;5036608;28;20130;-56
2022/09/29 00:33:39;;;;;;;2.90;0.50;;;18.60;1.00;;;;;;5035987;28;20128;-57
2022/09/29 00:36:09;;;;;;;3.95;0.70;;;18.70;1.00;;;;;;5036546;28;20403;-57
2022/09/29 00:38:36;;;;;;;1.08;0.40;;;18.70;1.00;;;;;;5036909;28;20372;-58
2022/09/29 00:41:04;;;;;;;1.70;0.40;;;18.70;1.00;;;;;;5036309;28;20100;-52
2022/09/29 00:43:50;;;;;;;3.17;0.60;;;18.70;1.00;;;;;;5036496;28;20045;-57
2022/09/29 00:46:44;;;;;;;2.00;0.35;;;18.70;1.00;;;;;;5036329;28;20107;-53
2022/09/29 00:49:18;;;;;;;1.13;0.50;;;18.70;1.00;;;;;;5036319;28;20491;-58
2022/09/29 00:51:58;;;;;;;1.48;0.32;;;18.70;1.00;;;;;;5036006;28;20038;-54
2022/09/29 00:54:29;;;;;;;2.25;0.40;;;18.70;1.00;;;;;;5035916;28;20052;-56
2022/09/29 00:56:58;;;;;;;3.95;0.65;;;18.70;1.00;;;;;;5035893;28;20048;-53
2022/09/29 00:59:32;;;;;;;0.40;0.20;;;18.70;1.00;;;;;;5036337;28;20041;-55
2022/09/29 01:01:59;;;;;;;1.08;0.20;;;18.70;1.00;;;;;;5035886;28;20037;-49
2022/09/29 01:04:26;;;;;;;0.57;0.35;;;18.70;1.00;;;;;;5035895;28;20073;-53
2022/09/29 01:06:57;;;;;;;0.60;0.30;;;18.70;1.00;;;;;;5036382;28;20567;-55
2022/09/29 01:09:28;;;;;;;1.40;0.30;;;18.70;1.00;;;;;;5035680;28;20053;-54
2022/09/29 01:11:59;;;;;;;1.35;0.40;;;18.70;1.00;;;;;;5035450;28;20045;-56
2022/09/29 01:14:28;;;;;;;2.00;0.50;;;18.70;1.00;;;;;;5035706;28;20049;-53
2022/09/29 01:16:54;;;;;;;0.60;0.30;;;18.70;1.00;;;;;;5036047;28;20456;-58
2022/09/29 01:19:32;;;;;;;1.10;0.43;;;18.70;1.00;;;;;;5035599;28;20080;-55
2022/09/29 01:22:02;;;;;;;0.85;0.28;;;18.70;1.00;;;;;;5035540;28;20041;-53
2022/09/29 01:24:44;;;;;;;1.65;0.38;;;18.70;1.00;;;;;;5035518;28;20118;-56
2022/09/29 01:27:33;;;;;;;2.65;0.80;;;18.60;1.00;;;;;;5035920;28;20128;-57
2022/09/29 01:30:21;;;;;;;0.75;0.30;;;18.60;1.00;;;;;;5035575;28;20046;-57
2022/09/29 01:33:36;;;;;;;0.95;0.28;;;18.60;1.00;;;;;;5034973;28;20065;-57
2022/09/29 01:36:11;;;;;;;1.02;0.40;;;18.60;1.00;;;;;;5013197;28;20046;-58
2022/09/29 01:39:00;;;;;;;0.70;0.30;;;18.60;1.00;;;;;;5013376;28;20046;-57
2022/09/29 01:42:06;;;;;;;1.40;0.52;;;18.60;1.00;;;;;;5029801;28;20049;-58
2022/09/29 01:44:40;;;;;;;1.20;0.60;;;18.60;1.00;;;;;;5013167;28;20096;-55
2022/09/29 01:47:36;;;;;;;0.50;0.50;;;18.60;1.00;;;;;;5013388;28;20072;-58
2022/09/29 01:50:12;;;;;;;1.23;0.40;;;18.60;1.00;;;;;;5027368;28;20099;-56
2022/09/29 01:52:44;;;;;;;1.52;0.32;;;18.60;1.00;;;;;;5034607;28;20042;-55
2022/09/29 01:55:17;;;;;;;0.45;0.20;;;18.60;1.00;;;;;;5034696;28;20136;-58
2022/09/29 01:57:51;;;;;;;0.88;0.30;;;18.60;1.00;;;;;;5035387;28;20475;-57
2022/09/29 02:00:21;;;;;;;1.48;0.20;;;18.60;1.00;;;;;;5033662;28;20551;-57
2022/09/29 02:03:04;;;;;;;1.52;0.30;;;18.50;1.00;;;;;;5034513;28;20056;-56
2022/09/29 02:05:43;;;;;;;1.02;0.40;;;18.50;1.00;;;;;;5034774;28;20041;-53
2022/09/29 02:08:16;;;;;;;1.20;0.43;;;18.50;1.00;;;;;;5034917;28;20067;-56
2022/09/29 02:11:03;;;;;;;1.83;0.32;;;18.50;1.00;;;;;;5034718;28;20045;-56
2022/09/29 02:13:49;;;;;;;0.55;0.28;;;18.50;1.00;;;;;;5034042;28;20045;-57
2022/09/29 02:16:20;;;;;;;1.08;0.40;;;18.50;1.00;;;;;;5034436;28;20052;-56
2022/09/29 02:18:58;;;;;;;0.80;0.30;;;18.50;1.00;;;;;;5034781;28;20041;-56
2022/09/29 02:21:27;;;;;;;0.55;0.20;;;18.50;1.00;;;;;;5034544;28;20061;-57
2022/09/29 02:23:54;;;;;;;2.00;0.47;;;18.40;1.00;;;;;;5034506;28;20468;-53
2022/09/29 02:26:24;;;;;;;0.40;0.20;;;18.50;1.00;;;;;;5034245;28;20049;-56
2022/09/29 02:28:51;;;;;;;0.70;0.30;;;18.50;1.00;;;;;;5034215;28;20041;-57
2022/09/29 02:31:18;;;;;;;1.50;0.45;;;18.50;1.00;;;;;;5034762;28;20445;-54
2022/09/29 02:33:45;;;;;;;1.42;0.55;;;18.50;1.00;;;;;;5034401;28;20041;-56
2022/09/29 02:36:29;;;;;;;1.25;0.32;;;18.50;1.00;;;;;;5033802;28;20051;-54
2022/09/29 02:39:21;;;;;;;2.67;0.60;;;18.50;1.00;;;;;;5034065;28;20041;-57
2022/09/29 02:42:06;;;;;;;0.98;0.50;;;18.40;1.00;;;;;;5033899;28;20037;-55
2022/09/29 02:45:01;;;;;;;1.92;0.60;;;18.50;1.00;;;;;;5033844;28;20108;-57
2022/09/29 02:48:05;;;;;;;0.80;0.30;;;18.50;1.00;;;;;;5033834;28;20479;-58
2022/09/29 02:50:56;;;;;;;0.88;0.40;;;18.50;1.00;;;;;;5034161;28;20041;-54
2022/09/29 02:53:41;;;;;;;2.05;0.60;;;18.50;1.00;;;;;;5033546;28;20045;-59
2022/09/29 02:56:24;;;;;;;4.50;0.47;;;18.50;1.00;;;;;;5033801;28;20045;-59
2022/09/29 02:59:03;;;;;;;1.20;0.60;;;18.50;1.00;;;;;;5034192;28;20128;-59
2022/09/29 03:01:32;;;;;;;2.05;0.52;;;18.50;1.00;;;;;;5034064;28;20049;-59
2022/09/29 03:03:59;;;;;;;1.42;0.70;;;18.40;1.00;;;;;;5033487;28;20038;-59
2022/09/29 03:06:31;;;;;;;1.65;0.50;;;18.40;1.00;;;;;;5033847;28;20048;-59
2022/09/29 03:08:57;;;;;;;0.98;0.57;;;18.40;1.00;;;;;;5033471;28;20095;-59
2022/09/29 03:11:24;;;;;;;1.63;0.60;;;18.40;1.00;;;;;;5033581;28;20438;-59
2022/09/29 03:13:51;;;;;;;0.90;0.50;;;18.40;1.00;;;;;;5033014;28;20045;-59
2022/09/29 03:16:18;;;;;;;1.25;0.60;;;18.40;1.00;;;;;;5033577;28;20045;-59
2022/09/29 03:18:45;;;;;;;0.80;0.30;;;18.40;1.00;;;;;;5033265;28;20483;-59
2022/09/29 03:21:12;;;;;;;2.08;0.43;;;18.40;1.00;;;;;;5032431;28;20462;-59
2022/09/29 03:23:39;;;;;;;0.90;0.50;;;18.30;1.00;;;;;;5033046;28;20041;-59
2022/09/29 03:26:05;;;;;;;1.00;0.50;;;18.30;1.00;;;;;;5033905;28;20045;-59
2022/09/29 03:28:32;;;;;;;0.93;0.47;;;18.30;1.00;;;;;;5033826;28;20506;-59
2022/09/29 03:31:06;;;;;;;1.40;0.65;;;18.30;1.00;;;;;;5033388;28;20119;-59
2022/09/29 03:33:33;;;;;;;1.80;0.63;;;18.30;1.00;;;;;;5033364;28;20045;-58
2022/09/29 03:36:00;;;;;;;2.58;0.60;;;18.40;1.00;;;;;;5033067;28;20045;-58
2022/09/29 03:38:27;;;;;;;1.27;0.50;;;18.30;1.00;;;;;;5033066;28;20498;-58
2022/09/29 03:40:54;;;;;;;1.83;0.60;;;18.30;1.00;;;;;;5033030;28;20502;-59
2022/09/29 03:43:21;;;;;;;1.98;0.40;;;18.30;1.00;;;;;;5033231;28;20543;-58
2022/09/29 03:45:49;;;;;;;1.92;0.95;;;18.30;1.00;;;;;;5033204;28;20103;-58
2022/09/29 03:48:18;;;;;;;1.35;0.75;;;18.30;1.00;;;;;;5032115;28;20446;-58
2022/09/29 03:50:50;;;;;;;1.27;0.35;;;18.30;1.00;;;;;;5033161;28;20041;-58
2022/09/29 03:53:17;;;;;;;1.52;0.60;;;18.20;1.00;;;;;;5032618;28;20073;-58
2022/09/29 03:55:48;;;;;;;1.00;0.50;;;18.30;1.00;;;;;;5033368;28;20061;-57
2022/09/29 03:58:16;;;;;;;0.88;0.40;;;18.30;1.00;;;;;;5035420;28;20041;-58
2022/09/29 04:00:43;;;;;;;1.92;0.70;;;18.20;1.00;;;;;;5037288;28;20041;-57
2022/09/29 04:03:10;;;;;;;1.85;0.63;;;18.20;1.00;;;;;;5036965;28;20527;-57
2022/09/29 04:05:39;;;;;;;1.25;0.75;;;18.20;1.00;;;;;;5036768;28;20034;-55
2022/09/29 04:08:06;;;;;;;1.10;0.60;;;18.20;1.00;;;;;;5037054;28;20491;-58
2022/09/29 04:10:37;;;;;;;1.25;0.65;;;18.20;1.00;;;;;;5037059;28;20041;-59
2022/09/29 04:13:05;;;;;;;6.32;2.35;;;18.20;1.00;;;;;;5035224;28;20477;-58
2022/09/29 04:15:32;;;;;;;3.13;0.52;;;18.20;1.00;;;;;;5036905;28;20049;-58
2022/09/29 04:17:59;;;;;;;1.70;0.50;;;18.20;1.00;;;;;;5036585;28;20542;-59
2022/09/29 04:20:26;;;;;;;2.15;0.70;;;18.20;1.00;;;;;;5037129;28;20042;-59
2022/09/29 04:22:53;;;;;;;1.70;0.70;;;18.20;1.00;;;;;;5035468;28;20107;-59
2022/09/29 04:25:20;;;;;;;3.20;0.70;;;18.20;1.00;;;;;;5036584;28;20442;-57
2022/09/29 04:27:47;;;;;;;2.72;0.80;;;18.00;1.00;;;;;;5029775;28;20190;-57
2022/09/29 04:30:14;;;;;;;1.02;0.65;;;17.90;1.00;;;;;;5027032;28;20046;-56
2022/09/29 04:32:41;;;;;;;1.33;0.75;;;17.80;1.00;;;;;;5031376;28;20045;-58
2022/09/29 04:35:09;;;;;;;3.33;0.73;;;17.70;1.00;;;;;;5036415;28;20050;-57
2022/09/29 04:37:36;;;;;;;2.78;0.70;;;17.80;1.00;;;;;;5036297;28;20045;-57
2022/09/29 04:40:04;;;;;;;1.60;0.70;;;17.70;1.00;;;;;;5036538;28;20407;-59
2022/09/29 04:42:31;;;;;;;5.07;0.55;;;17.70;1.00;;;;;;5035889;28;20041;-56
2022/09/29 04:44:57;;;;;;;1.35;0.73;;;17.60;1.00;;;;;;5036040;28;20095;-56
2022/09/29 04:47:24;;;;;;;1.60;0.75;;;17.60;1.00;;;;;;5036141;28;20056;-55
2022/09/29 04:49:51;;;;;;;1.88;0.85;;;17.60;1.00;;;;;;5036417;28;20424;-56
2022/09/29 04:52:18;;;;;;;2.05;0.68;;;17.60;1.00;;;;;;5036027;28;20049;-56
2022/09/29 04:54:45;;;;;;;6.07;0.70;;;17.60;1.00;;;;;;5036123;28;20041;-59
2022/09/29 04:57:12;;;;;;;4.00;0.98;;;17.60;1.00;;;;;;5035972;28;20095;-59
2022/09/29 04:59:38;;;;;;;1.45;0.65;;;17.60;1.00;;;;;;5035808;28;20050;-58
2022/09/29 05:02:05;;;;;;;3.90;0.73;;;17.70;1.00;;;;;;5034480;28;20120;-56
2022/09/29 05:04:32;;;;;;;8.30;0.93;;;17.60;1.00;;;;;;5035783;28;20061;-57
2022/09/29 05:06:59;;;;;;;1.40;0.75;;;17.60;1.00;;;;;;5029700;28;20034;-59
2022/09/29 05:09:26;;;;;;;1.50;0.75;;;17.60;1.00;;;;;;5018539;28;20038;-57
2022/09/29 05:11:59;;;;;;;3.72;1.45;;;17.80;1.00;;;;;;5035647;28;20132;-53
2022/09/29 05:14:26;;;;;;;1.10;0.80;;;17.90;1.00;;;;;;5035280;28;20052;-53
2022/09/29 05:16:57;;;;;;;2.10;1.08;;;18.00;1.00;;;;;;5035910;28;20494;-56
2022/09/29 05:19:24;;;;;;;4.28;0.85;;;18.00;1.00;;;;;;5035748;28;20128;-56
2022/09/29 05:21:50;;;;;;;4.15;0.90;;;18.10;1.00;;;;;;5035328;28;20118;-57
2022/09/29 05:24:17;;;;;;;0.85;0.70;;;18.00;1.00;;;;;;5035337;28;20087;-56
2022/09/29 05:26:44;;;;;;;1.55;0.95;;;18.00;1.00;;;;;;5035478;28;20051;-54
2022/09/29 05:29:11;;;;;;;1.88;0.70;;;18.00;1.00;;;;;;5035383;28;20046;-55
2022/09/29 05:31:38;;;;;;;1.73;1.02;;;18.00;1.00;;;;;;5035200;28;20553;-55
2022/09/29 05:34:05;;;;;;;1.95;0.80;;;18.00;1.00;;;;;;5034256;28;20045;-53
2022/09/29 05:36:31;;;;;;;3.03;1.17;;;18.00;1.00;;;;;;5032872;28;20484;-53
2022/09/29 05:38:58;;;;;;;3.10;0.93;;;18.00;1.00;;;;;;5013842;28;20479;-55
2022/09/29 05:41:25;;;;;;;2.40;0.70;;;18.00;1.00;;;;;;5017833;28;20050;-55
2022/09/29 05:43:54;;;;;;;6.18;1.52;;;17.90;1.00;;;;;;5025107;28;20040;-52
2022/09/29 05:46:21;;;;;;;1.67;1.02;;;17.90;1.00;;;;;;5023691;28;20068;-54
2022/09/29 05:48:52;;;;;;;1.75;0.85;;;17.90;1.00;;;;;;5023862;28;20045;-50
2022/09/29 05:51:25;;;;;;;2.72;0.60;;;17.90;1.00;;;;;;5020791;28;20042;-55
2022/09/29 05:53:53;;;;;;;1.50;0.60;;;17.90;1.00;;;;;;5027281;28;20050;-56
2022/09/29 05:56:22;;;;;;;3.90;0.88;;;17.90;1.00;;;;;;5025115;28;20053;-56
2022/09/29 05:58:50;;;;;;;3.05;1.58;;;17.90;1.00;;;;;;5034664;28;20045;-57
2022/09/29 06:01:23;;;;;;;6.00;1.85;;;17.90;1.00;;;;;;5031914;28;20125;-56
2022/09/29 06:03:51;;;;;;;5.38;2.20;;;17.90;1.00;;;;;;5015051;28;20069;-58
2022/09/29 06:06:20;;;;;;;3.63;2.50;;;17.80;1.00;;;;;;5013344;28;20408;-53
2022/09/29 06:08:48;;;;;;;2.42;2.20;;;18.10;1.00;;;;;;5014466;28;20100;-56
2022/09/29 06:11:26;;;;;;;5.13;2.53;;;18.70;1.00;;;;;;5014815;28;20050;-57
2022/09/29 06:13:54;;;;;;;5.20;2.47;;;19.40;1.00;;;;;;5015996;28;20099;-53
2022/09/29 06:16:24;;;;;;;5.57;2.42;;;19.70;1.00;;;;;;5014120;28;20104;-57
2022/09/29 06:18:51;;;;;;;3.50;2.10;;;19.10;1.00;;;;;;5018544;28;20097;-56
2022/09/29 06:21:22;;;;;;;2.63;2.03;;;18.20;1.00;;;;;;5024728;28;20052;-55
2022/09/29 06:23:50;;;;;;;5.30;2.13;;;17.60;1.00;;;;;;5023912;28;20066;-56
2022/09/29 06:26:19;;;;;;;4.10;2.13;;;17.30;1.00;;;;;;5014152;28;20041;-55
2022/09/29 06:28:51;;;;;;;5.15;2.63;;;16.90;1.00;;;;;;5020727;28;20406;-58
2022/09/29 06:31:20;;;;;;;13.95;3.10;;;16.80;1.00;;;;;;5028710;28;20107;-54
2022/09/29 06:33:48;;;;;;;6.90;3.30;;;16.70;1.00;;;;;;5026044;28;20069;-58
2022/09/29 06:39:08;;;;;;;6.10;2.08;;;16.90;1.00;;;;;;5033890;28;20048;-60
2022/09/29 06:41:35;;;;;;;5.25;2.30;;;17.20;1.00;;;;;;5033757;28;20487;-60
2022/09/29 06:44:02;;;;;;;4.20;1.83;;;17.30;1.00;;;;;;5033977;28;20038;-60
2022/09/29 06:46:29;;;;;;;6.35;2.55;;;17.50;1.00;;;;;;5033575;28;20096;-60
2022/09/29 06:48:57;;;;;;;2.60;2.05;;;17.60;1.00;;;;;;5033750;28;20045;-59
2022/09/29 06:51:25;;;;;;;3.85;2.47;;;17.80;1.00;;;;;;5033723;28;20061;-57
2022/09/29 06:54:06;;;;;;;7.15;1.58;;;17.80;1.00;;;;;;5034232;28;20049;-57
2022/09/29 06:56:38;;;;;;;3.13;1.73;;;17.80;1.00;;;;;;5033663;28;20072;-57
2022/09/29 06:59:06;;;;;;;4.40;1.77;;;17.70;1.00;;;;;;5034368;28;20088;-54
2022/09/29 07:01:33;;;;;;;3.15;1.70;;;17.70;1.00;;;;;;5033402;28;20049;-58
2022/09/29 07:04:01;;;;;;;3.55;1.45;;;17.70;1.00;;;;;;5033769;28;20120;-57
2022/09/29 07:06:29;;;;;;;2.85;1.60;;;17.70;1.00;;;;;;5033891;28;20372;-55
2022/09/29 07:08:57;;;;;;;2.17;1.23;;;17.70;1.00;;;;;;5034097;28;20144;-56
2022/09/29 07:11:25;;;;;;;3.38;1.77;;;17.70;1.00;;;;;;5033382;28;20046;-57
2022/09/29 07:13:52;;;;;;;2.35;1.52;;;17.70;1.00;;;;;;5033319;28;20068;-55
2022/09/29 07:16:24;;;;;;;2.08;1.52;;;17.80;1.00;;;;;;5033528;28;20041;-57
2022/09/29 07:18:52;;;;;;;3.22;1.45;;;17.80;1.00;;;;;;5033495;28;20491;-57
2022/09/29 07:21:20;;;;;;;2.17;1.20;;;17.70;1.00;;;;;;5033493;28;20557;-56
2022/09/29 07:23:47;;;;;;;3.17;1.45;;;17.70;1.00;;;;;;5032928;28;20045;-57
2022/09/29 07:26:15;;;;;;;2.05;1.00;;;17.70;1.00;;;;;;5033212;28;20045;-57
2022/09/29 07:28:43;;;;;;;2.22;1.50;;;17.70;1.00;;;;;;5033890;28;20045;-57
2022/09/29 07:31:16;;;;;;;3.05;0.93;;;17.60;1.00;;;;;;5033023;28;20049;-58
2022/09/29 07:33:45;;;;;;;2.08;1.45;;;17.60;1.00;;;;;;5033011;28;20041;-57
2022/09/29 07:36:13;;;;;;;3.03;1.30;;;17.60;1.00;;;;;;5032890;28;20419;-59
2022/09/29 07:38:40;;;;;;;3.03;1.48;;;17.60;1.00;;;;;;5033400;28;20399;-59
2022/09/29 07:41:10;;;;;;;2.05;1.30;;;17.60;1.00;;;;;;5033094;28;20100;-58
2022/09/29 07:43:38;;;;;;;1.88;1.13;;;17.60;1.00;;;;;;5032586;28;20045;-58
2022/09/29 07:46:06;;;;;;;2.33;1.60;;;17.60;1.00;;;;;;5033071;28;20128;-58
2022/09/29 07:48:33;;;;;;;1.67;1.17;;;17.70;1.00;;;;;;5033237;28;20072;-57
2022/09/29 07:51:27;;;;;;;2.65;1.20;;;17.60;1.00;;;;;;5033144;28;20041;-58
2022/09/29 07:53:54;;;;;;;1.50;1.02;;;17.60;1.00;;;;;;5032748;28;20395;-57
2022/09/29 07:56:22;;;;;;;3.33;1.38;;;17.60;1.00;;;;;;5032920;28;20049;-58
2022/09/29 07:58:49;;;;;;;2.33;0.90;;;17.50;1.00;;;;;;5033363;28;20041;-57
2022/09/29 08:01:18;;;;;;;1.73;0.98;;;17.30;1.00;;;;;;5032713;28;20099;-58
2022/09/29 08:03:54;;;;;;;3.20;1.00;;;17.20;1.00;;;;;;5032662;28;20041;-56
2022/09/29 08:06:23;;;;;;;2.15;1.20;;;17.10;1.00;;;;;;5033216;28;20041;-57
2022/09/29 08:08:50;;;;;;;1.77;1.52;;;17.10;1.00;;;;;;5033495;28;20083;-57
2022/09/29 08:11:31;;;;;;;2.88;1.05;;;17.00;1.00;;;;;;5033029;28;20086;-58
2022/09/29 08:13:59;;;;;;;2.53;1.20;;;17.00;1.00;;;;;;5032798;28;20061;-57
2022/09/29 08:16:27;;;;;;;3.88;1.30;;;17.10;1.00;;;;;;5032896;28;20046;-54
2022/09/29 08:18:54;;;;;;;1.70;1.27;;;17.20;1.00;;;;;;5032890;28;20130;-58
2022/09/29 08:21:21;;;;;;;1.65;1.00;;;17.30;1.00;;;;;;5033003;28;20048;-57
2022/09/29 08:23:47;;;;;;;2.50;1.25;;;17.30;1.00;;;;;;5033050;28;20041;-59
2022/09/29 08:26:17;;;;;;;1.25;0.88;;;17.70;1.00;;;;;;5032795;28;20100;-51
2022/09/29 08:28:47;;;;;;;2.78;0.90;;;17.80;1.00;;;;;;5033106;28;20102;-56
2022/09/29 08:31:26;;;;;;;1.15;0.77;;;17.90;1.00;;;;;;5032577;28;20045;-56
2022/09/29 08:33:52;;;;;;;2.38;1.00;;;17.90;1.00;;;;;;5032337;28;20045;-51
2022/09/29 08:36:20;;;;;;;1.23;0.88;;;17.90;1.00;;;;;;5032432;28;20049;-56
2022/09/29 08:38:52;;;;;;;1.90;1.05;;;17.80;1.00;;;;;;5032319;28;20471;-55
2022/09/29 08:41:26;;;;;;;3.40;1.00;;;17.80;1.00;;;;;;5032694;28;20037;-54
2022/09/29 08:43:58;;;;;;;2.22;1.20;;;17.80;1.00;;;;;;5033960;28;20037;-52
2022/09/29 08:46:38;;;;;;;2.67;0.90;;;17.80;1.00;;;;;;5036115;28;20041;-53
2022/09/29 08:49:20;;;;;;;2.55;0.98;;;17.90;1.00;;;;;;5036858;28;20479;-53
2022/09/29 08:52:08;;;;;;;1.88;1.10;;;17.90;1.00;;;;;;5035938;28;20041;-53
2022/09/29 08:54:45;;;;;;;2.47;1.25;;;17.90;1.00;;;;;;5036277;28;20041;-53
2022/09/29 08:57:17;;;;;;;1.45;0.90;;;17.90;1.00;;;;;;5036065;28;20092;-50
2022/09/29 08:59:57;;;;;;;1.35;0.52;;;17.90;1.00;;;;;;5035597;28;20042;-55
2022/09/29 09:02:42;;;;;;;4.00;0.90;;;18.00;1.00;;;;;;5035631;28;20103;-52
2022/09/29 09:05:16;;;;;;;1.27;0.70;;;18.00;1.00;;;;;;5035981;28;20092;-51
2022/09/29 09:08:18;;;;;;;1.80;0.80;;;18.10;1.00;;;;;;5035826;28;20376;-55
2022/09/29 09:10:56;;;;;;;1.77;0.77;;;18.10;1.00;;;;;;5035815;28;20045;-58
2022/09/29 09:13:47;;;;;;;1.85;0.95;;;18.10;1.00;;;;;;5035817;28;20388;-57
2022/09/29 09:16:32;;;;;;;1.40;0.50;;;18.20;1.00;;;;;;5035579;28;20491;-56
2022/09/29 09:19:37;;;;;;;1.83;1.15;;;18.20;1.00;;;;;;5035497;28;20399;-56
2022/09/29 09:22:22;;;;;;;1.92;0.88;;;18.20;1.00;;;;;;5035390;28;20048;-55
2022/09/29 09:25:16;;;;;;;4.25;0.98;;;18.30;1.00;;;;;;5035413;28;20044;-55
2022/09/29 09:27:48;;;;;;;2.15;1.10;;;18.40;1.00;;;;;;5035555;28;20053;-56
2022/09/29 09:30:17;;;;;;;1.40;0.98;;;18.40;1.00;;;;;;5035386;28;20498;-53
2022/09/29 09:32:50;;;;;;;2.55;0.77;;;18.40;1.00;;;;;;5035193;28;20503;-56
2022/09/29 09:35:20;;;;;;;;;;;18.50;1.00;;;;;;5035467;28;20049;-57
2022/09/29 09:37:53;;;;;;;3.03;0.50;;;18.50;1.00;;;;;;5035242;28;19928;-57
2022/09/29 09:40:26;;;;;;;0.73;0.50;;;18.50;1.00;;;;;;5035014;28;20077;-57
2022/09/29 09:43:04;;;;;;;1.00;0.50;;;18.50;1.00;;;;;;5034834;28;20045;-54
2022/09/29 09:45:41;;;;;;;1.35;0.70;;;18.50;1.00;;;;;;5034864;28;20033;-56
2022/09/29 09:48:17;;;;;;;1.73;0.85;;;18.40;1.00;;;;;;5035199;28;20499;-55
2022/09/29 09:50:50;;;;;;;1.00;0.80;;;18.40;1.00;;;;;;5035176;28;20052;-56
2022/09/29 09:53:36;;;;;;;1.98;0.70;;;18.40;1.00;;;;;;5034612;28;20111;-57
2022/09/29 09:56:15;;;;;;;1.42;0.75;;;18.40;1.00;;;;;;5034884;28;20069;-57
2022/09/29 09:58:58;;;;;;;1.23;0.70;;;18.50;1.00;;;;;;5035011;28;20068;-55
2022/09/29 10:01:26;;;;;;;1.15;0.75;;;18.50;1.00;;;;;;5034614;28;20487;-55
2022/09/29 10:03:53;;;;;;;1.15;0.60;;;18.50;1.00;;;;;;5034640;28;20062;-56
2022/09/29 10:06:20;;;;;;;1.63;0.52;;;18.50;1.00;;;;;;5034679;28;20096;-55
2022/09/29 10:08:49;;;;;;;1.42;1.10;;;18.60;1.00;;;;;;5034461;28;20111;-56
2022/09/29 10:11:30;;;;;;;0.93;0.70;;;18.60;1.00;;;;;;5034375;28;20041;-57
2022/09/29 10:14:12;;;;;;;1.70;0.50;;;18.60;1.00;;;;;;5034762;28;20045;-58
2022/09/29 10:17:11;;;;;;;0.95;0.47;;;18.60;1.00;;;;;;5034680;28;20042;-58
2022/09/29 10:20:00;;;;;;;0.98;0.52;;;18.70;1.00;;;;;;5034419;28;20042;-55
2022/09/29 10:22:29;;;;;;;0.90;0.55;;;18.70;1.00;;;;;;5034075;28;20037;-54
2022/09/29 10:25:19;;;;;;;1.67;0.30;;;18.70;1.00;;;;;;5034307;28;20037;-57
2022/09/29 10:27:52;;;;;;;0.98;0.35;;;18.70;1.00;;;;;;5033758;28;20561;-55
2022/09/29 10:30:22;;;;;;;;;;;18.70;1.00;;;;;;5034818;28;20472;-56
2022/09/29 10:32:57;;;;;;;1.10;0.60;;;18.70;1.00;;;;;;5033782;28;19975;-57
2022/09/29 10:35:37;;;;;;;1.83;0.60;;;18.70;1.00;;;;;;5034114;28;20103;-54
2022/09/29 10:38:08;;;;;;;1.65;0.40;;;18.80;1.00;;;;;;5034259;28;20053;-57
2022/09/29 10:40:35;;;;;;;1.40;0.30;;;18.80;1.00;;;;;;5034056;28;20046;-55
2022/09/29 10:43:23;;;;;;;2.38;0.50;;;18.70;1.00;;;;;;5033976;28;20455;-57
2022/09/29 10:45:52;;;;;;;1.15;0.40;;;18.70;1.00;;;;;;5033837;28;20041;-52
2022/09/29 10:48:19;;;;;;;1.08;0.40;;;18.70;1.00;;;;;;5033924;28;20050;-57
2022/09/29 10:50:52;;;;;;;2.85;0.40;;;18.60;1.00;;;;;;5033786;28;20410;-56
2022/09/29 10:53:38;;;;;;;0.85;0.60;;;18.60;1.00;;;;;;5033539;28;20125;-57
2022/09/29 10:56:21;;;;;;;0.65;0.38;;;18.60;1.00;;;;;;5033556;28;20112;-54
2022/09/29 10:59:00;;;;;;;0.73;0.35;;;18.60;1.00;;;;;;5033892;28;20045;-57
2022/09/29 11:01:41;;;;;;;1.38;0.60;;;18.60;1.00;;;;;;5033586;28;20042;-57
2022/09/29 11:04:21;;;;;;;0.85;0.40;;;18.60;1.00;;;;;;5034038;28;20049;-57
2022/09/29 11:06:48;;;;;;;1.38;0.40;;;18.60;1.00;;;;;;5033155;28;20572;-55
2022/09/29 11:09:15;;;;;;;1.27;0.60;;;18.60;1.00;;;;;;5033664;28;20052;-57
2022/09/29 11:11:48;;;;;;;1.90;0.40;;;18.60;1.00;;;;;;5032123;28;20466;-56
2022/09/29 11:14:37;;;;;;;0.88;0.40;;;18.50;1.00;;;;;;5033670;28;20483;-54
2022/09/29 11:17:24;;;;;;;0.75;0.28;;;18.60;1.00;;;;;;5033294;28;20091;-54
2022/09/29 11:19:52;;;;;;;1.02;0.38;;;18.50;1.00;;;;;;5033837;28;20526;-58
2022/09/29 11:22:47;;;;;;;0.47;0.22;;;18.50;1.00;;;;;;5032958;28;20041;-57
2022/09/29 11:25:32;;;;;;;0.95;0.40;;;18.60;1.00;;;;;;5033434;28;20056;-55
2022/09/29 11:28:04;;;;;;;0.47;0.20;;;18.60;1.00;;;;;;5033420;28;20048;-56
2022/09/29 11:30:49;;;;;;;0.80;0.35;;;18.60;1.00;;;;;;5033330;28;20052;-55
2022/09/29 11:33:19;;;;;;;1.27;0.50;;;18.70;1.00;;;;;;5032982;28;20056;-57
2022/09/29 11:36:06;;;;;;;1.13;0.30;;;18.60;1.00;;;;;;5032996;28;20037;-56
2022/09/29 11:39:12;;;;;;;0.70;0.30;;;18.70;1.00;;;;;;5033421;28;20041;-57
2022/09/29 11:41:53;;;;;;;2.55;0.65;;;18.70;1.00;;;;;;5033075;28;20042;-56
2022/09/29 11:44:33;;;;;;;0.55;0.25;;;18.70;1.00;;;;;;5033039;28;20034;-54
2022/09/29 11:47:41;;;;;;;0.80;0.30;;;18.70;1.00;;;;;;5033290;28;20051;-57
2022/09/29 11:50:11;;;;;;;1.13;0.40;;;18.60;1.00;;;;;;5031935;28;20583;-58
2022/09/29 11:53:11;;;;;;;0.60;0.40;;;18.60;1.00;;;;;;5032610;28;20050;-56
2022/09/29 11:55:57;;;;;;;0.85;0.28;;;18.60;1.00;;;;;;5032927;28;20049;-55
2022/09/29 11:58:40;;;;;;;0.75;0.20;;;18.60;1.00;;;;;;5033152;28;20565;-54
2022/09/29 12:01:28;;;;;;;0.63;0.20;;;18.60;1.00;;;;;;5032807;28;20052;-56
2022/09/29 12:04:15;;;;;;;0.98;0.40;;;18.60;1.00;;;;;;5032913;28;20037;-57
2022/09/29 12:06:52;;;;;;;0.93;0.20;;;18.60;1.00;;;;;;5032897;28;20099;-55
2022/09/29 12:09:28;;;;;;;0.75;0.32;;;18.60;1.00;;;;;;5033013;28;20060;-55
2022/09/29 12:12:28;;;;;;;0.20;0.17;;;18.60;1.00;;;;;;5032507;28;20042;-57
2022/09/29 12:15:13;;;;;;;0.28;0.13;;;18.60;1.00;;;;;;5033069;28;20374;-56
2022/09/29 12:17:45;;;;;;;3.40;0.60;;;18.60;1.00;;;;;;5032663;28;20045;-58
2022/09/29 12:20:23;;;;;;;0.70;0.30;;;18.60;1.00;;;;;;5036951;28;20046;-56
2022/09/29 12:22:52;;;;;;;0.85;0.30;;;18.60;1.00;;;;;;5036031;28;20060;-57
2022/09/29 12:25:24;;;;;;;0.70;0.20;;;18.60;1.00;;;;;;5036654;28;20449;-59
2022/09/29 12:27:58;;;;;;;0.77;0.30;;;18.60;1.00;;;;;;5036396;28;20068;-56
2022/09/29 12:30:55;;;;;;;0.65;0.20;;;18.60;1.00;;;;;;5036860;28;20049;-57
2022/09/29 12:33:41;;;;;;;0.60;0.20;;;18.60;1.00;;;;;;5036047;28;20104;-57
2022/09/29 12:39:14;;;;;;;0.75;0.30;;;18.60;1.00;;;;;;5036179;28;20363;-56
2022/09/29 12:41:48;;;;;;;0.80;0.20;;;18.60;1.00;;;;;;5035377;28;20041;-57
2022/09/29 12:44:41;;;;;;;0.55;0.20;;;18.60;1.00;;;;;;5036355;28;20061;-57
2022/09/29 12:47:28;;;;;;;0.68;0.30;;;18.60;1.00;;;;;;5035608;28;20113;-58
2022/09/29 12:50:04;;;;;;;0.95;0.25;;;18.50;1.00;;;;;;5035228;28;20049;-58
2022/09/29 12:52:54;;;;;;;1.05;0.20;;;18.60;1.00;;;;;;5034925;28;20129;-57
2022/09/29 12:55:38;;;;;;;0.98;0.30;;;18.60;1.00;;;;;;5035418;28;20475;-55
2022/09/29 12:58:17;;;;;;;0.63;0.20;;;18.60;1.00;;;;;;5035495;28;20049;-57
2022/09/29 13:00:51;;;;;;;0.60;0.20;;;18.60;1.00;;;;;;5035310;28;20046;-57
2022/09/29 13:03:58;;;;;;;0.60;0.20;;;18.60;1.00;;;;;;5034913;28;20115;-55
2022/09/29 13:07:22;;;;;;;9.73;0.30;;;18.60;1.00;;;;;;5034586;28;20411;-57
2022/09/29 13:09:54;;;;;;;0.30;0.03;;;18.60;1.00;;;;;;5032951;28;20057;-52
2022/09/29 13:12:37;;;;;;;0.40;0.20;;;18.60;1.00;;;;;;5030974;28;20056;-54
2022/09/29 13:15:26;;;;;;;0.40;0.20;;;18.60;1.00;;;;;;5019294;28;20103;-56
2022/09/29 13:18:26;;;;;;;1.45;0.17;;;18.60;1.00;;;;;;5023409;28;20038;-56
2022/09/29 13:21:08;;;;;;;1.08;0.28;;;18.50;1.00;;;;;;5029538;28;20037;-54
2022/09/29 13:23:53;;;;;;;0.20;0.10;;;18.50;1.00;;;;;;5034992;28;20033;-54
2022/09/29 13:26:44;;;;;;;1.85;0.30;;;18.50;1.00;;;;;;5034768;28;20499;-55
2022/09/29 13:29:22;;;;;;;1.85;0.32;;;18.50;1.00;;;;;;5032437;28;20072;-53
2022/09/29 13:31:51;;;;;;;1.05;0.35;;;18.50;1.00;;;;;;5031107;28;20041;-54
2022/09/29 13:34:35;;;;;;;1.58;0.22;;;18.50;1.00;;;;;;5035108;28;20053;-55
2022/09/29 13:37:17;;;;;;;1.27;0.38;;;18.40;1.00;;;;;;5034986;28;20447;-56
2022/09/29 13:39:54;;;;;;;1.42;0.30;;;18.50;1.00;;;;;;5035451;28;20059;-55
2022/09/29 13:42:43;;;;;;;0.65;0.20;;;18.60;1.00;;;;;;5035093;28;20042;-55